Time;durP1;ratioP1;P1;durP2;ratioP2;P2;SDS_P1;SDS_P2;PMS_P1;PMS_P2;Temp;Humidity;BMP_temperature;BMP_pressure;BME280_temperature;BME280_humidity;BME280_pressure;Samples;Min_cycle;Max_cycle;Signal;HPM_P1;HPM_P2
2022/06/13 00:01:37;;;;;;;10.25;4.93;;;;;;;12.61;87.45;102005.78;5017668;28;20071;-65
2022/06/13 00:04:04;;;;;;;18.05;6.93;;;;;;;12.56;88.27;102002.47;5051801;28;20036;-65
2022/06/13 00:06:30;;;;;;;14.40;5.65;;;;;;;12.47;88.87;102002.97;5053003;28;20225;-65
2022/06/13 00:08:55;;;;;;;8.93;4.60;;;;;;;12.28;86.83;101997.69;5052044;28;20029;-65
2022/06/13 00:11:24;;;;;;;12.88;4.60;;;;;;;12.27;86.62;102009.34;5034280;28;20036;-66
2022/06/13 00:13:54;;;;;;;12.63;4.90;;;;;;;11.85;87.95;102010.59;5053208;28;20094;-63
2022/06/13 00:16:20;;;;;;;11.77;5.53;;;;;;;11.86;87.31;101998.94;5053232;28;20178;-65
2022/06/13 00:18:49;;;;;;;13.40;5.20;;;;;;;11.86;89.55;101996.28;5053832;28;20036;-65
2022/06/13 00:21:16;;;;;;;14.27;6.07;;;;;;;11.95;89.93;101994.94;5051990;28;20032;-65
2022/06/13 00:23:42;;;;;;;11.65;4.95;;;;;;;12.04;88.70;101989.97;5052392;28;20165;-65
2022/06/13 00:26:07;;;;;;;9.32;4.90;;;;;;;11.99;88.83;101993.84;5051353;28;20483;-65
2022/06/13 00:28:33;;;;;;;11.88;5.00;;;;;;;11.83;87.88;101994.59;5051880;28;20037;-64
2022/06/13 00:30:58;;;;;;;8.98;5.00;;;;;;;11.97;87.86;101996.59;5052710;28;20044;-65
2022/06/13 00:33:24;;;;;;;12.07;5.80;;;;;;;11.94;88.63;101986.03;5051471;28;20036;-64
2022/06/13 00:35:49;;;;;;;13.13;6.32;;;;;;;12.05;88.81;101991.72;5052311;28;20051;-66
2022/06/13 00:38:15;;;;;;;18.73;6.97;;;;;;;12.02;89.26;101989.22;5051097;28;20047;-65
2022/06/13 00:40:41;;;;;;;12.13;6.45;;;;;;;11.83;91.39;101994.59;5051604;28;20048;-65
2022/06/13 00:43:08;;;;;;;11.18;5.68;;;;;;;11.85;91.08;101994.56;5051629;28;20036;-65
2022/06/13 00:45:35;;;;;;;14.43;6.30;;;;;;;11.78;90.59;101999.28;5052117;28;20101;-65
2022/06/13 00:48:02;;;;;;;12.20;5.68;;;;;;;11.73;89.74;101987.97;5052146;28;20651;-65
2022/06/13 00:50:31;;;;;;;10.65;5.72;;;;;;;11.72;91.75;101988.03;5052228;28;20079;-65
2022/06/13 00:53:08;;;;;;;20.70;5.75;;;;;;;11.75;92.32;101974.53;5051857;28;20032;-66
2022/06/13 00:55:42;;;;;;;12.13;5.97;;;;;;;11.74;91.75;101968.31;5051498;28;20072;-64
2022/06/13 00:58:08;;;;;;;15.18;5.82;;;;;;;11.73;93.62;101966.59;5051674;28;20155;-64
2022/06/13 01:00:35;;;;;;;12.80;6.85;;;;;;;11.75;93.59;101971.88;5034174;28;20454;-64
2022/06/13 01:03:03;;;;;;;17.27;6.53;;;;;;;11.78;93.60;101961.88;5052526;28;20032;-65
2022/06/13 01:05:32;;;;;;;14.25;6.65;;;;;;;11.79;93.55;101962.72;5052298;28;20436;-65
2022/06/13 01:08:00;;;;;;;13.68;6.25;;;;;;;11.92;92.44;101962.06;5051368;28;20055;-65
2022/06/13 01:13:11;;;;;;;15.10;6.57;;;;;;;11.94;93.11;101959.31;5050809;28;20454;-65
2022/06/13 01:15:48;;;;;;;17.23;6.07;;;;;;;12.07;92.36;101960.44;5051616;28;20044;-65
2022/06/13 01:18:26;;;;;;;23.67;8.40;;;;;;;12.05;92.73;101954.31;5050450;28;20120;-65
2022/06/13 01:21:20;;;;;;;15.95;6.43;;;;;;;12.11;92.95;101955.78;5050561;28;20888;-66
2022/06/13 01:24:27;;;;;;;12.68;5.82;;;;;;;12.04;91.96;101952.56;5052496;28;20123;-65
2022/06/13 01:27:09;;;;;;;10.50;5.50;;;;;;;12.04;92.57;101954.38;4969694;28;20061;-65
2022/06/13 01:29:40;;;;;;;14.27;5.50;;;;;;;11.81;93.63;101964.41;4970027;28;20449;-66
2022/06/13 01:32:08;;;;;;;14.98;5.28;;;;;;;11.90;92.70;101969.31;4968593;28;20166;-65
2022/06/13 01:34:57;;;;;;;15.05;6.45;;;;;;;12.02;92.95;101964.28;4969687;28;20042;-65
2022/06/13 01:37:53;;;;;;;9.35;5.63;;;;;;;11.95;93.36;101979.78;4969238;28;20058;-65
2022/06/13 01:40:40;;;;;;;11.85;6.00;;;;;;;11.97;93.43;101971.69;4969340;28;20038;-65
2022/06/13 01:43:20;;;;;;;11.88;6.05;;;;;;;12.07;93.14;101963.09;4964471;28;20046;-65
2022/06/13 01:46:07;;;;;;;11.02;6.20;;;;;;;11.96;94.18;101976.16;4967549;28;20497;-65
2022/06/13 01:48:51;;;;;;;13.55;6.88;;;;;;;11.88;96.14;101970.31;4969399;28;20091;-65
2022/06/13 01:51:23;;;;;;;14.45;7.63;;;;;;;12.14;94.59;101964.50;4968341;28;20066;-65
2022/06/13 01:54:27;;;;;;;18.23;6.93;;;;;;;12.16;94.43;101965.31;4969637;28;20038;-65
2022/06/13 01:57:25;;;;;;;12.93;7.10;;;;;;;12.31;95.02;101978.81;4968351;28;20618;-65
2022/06/13 01:59:50;;;;;;;15.50;7.40;;;;;;;12.50;93.60;101979.59;4962106;28;20536;-65
2022/06/13 02:02:26;;;;;;;16.45;7.47;;;;;;;12.63;93.44;101974.44;4968574;28;20046;-65
2022/06/13 02:05:14;;;;;;;14.77;6.65;;;;;;;12.64;93.67;101982.38;5030736;28;20148;-65
2022/06/13 02:07:47;;;;;;;15.93;7.38;;;;;;;12.56;94.05;101984.59;5050465;28;20039;-65
2022/06/13 02:10:19;;;;;;;10.63;7.15;;;;;;;12.61;94.32;101977.19;5050375;28;20332;-65
2022/06/13 02:12:50;;;;;;;13.32;7.20;;;;;;;12.37;96.30;101984.72;5051051;28;20063;-65
2022/06/13 02:15:20;;;;;;;14.68;6.70;;;;;;;12.58;95.92;101987.19;5049797;28;20097;-65
2022/06/13 02:17:50;;;;;;;16.80;8.15;;;;;;;12.30;97.24;101982.41;5050206;28;20048;-65
2022/06/13 02:20:20;;;;;;;10.35;6.05;;;;;;;12.21;97.81;101974.91;5049562;28;20801;-65
2022/06/13 02:22:50;;;;;;;19.58;9.18;;;;;;;12.27;98.34;101974.56;5050633;28;20860;-65
2022/06/13 02:25:21;;;;;;;23.40;9.77;;;;;;;12.39;96.36;101969.44;5031984;28;20102;-65
2022/06/13 02:27:54;;;;;;;19.83;8.65;;;;;;;12.39;96.08;101969.44;5050855;28;20051;-65
2022/06/13 02:30:25;;;;;;;19.25;8.02;;;;;;;12.55;95.19;101973.97;5049681;28;20040;-65
2022/06/13 02:32:57;;;;;;;19.08;8.52;;;;;;;12.57;95.16;101975.63;5050600;28;20116;-65
2022/06/13 02:35:48;;;;;;;21.30;8.25;;;;;;;12.73;95.48;101972.13;5049486;28;20032;-64
2022/06/13 02:38:26;;;;;;;23.75;8.48;;;;;;;12.73;94.42;101969.44;5031154;28;20051;-64
2022/06/13 02:41:04;;;;;;;17.70;8.02;;;;;;;12.73;94.58;101953.38;5050249;28;20144;-65
2022/06/13 02:43:42;;;;;;;20.08;9.45;;;;;;;12.59;95.86;101946.09;5031950;28;20167;-65
2022/06/13 02:46:14;;;;;;;22.42;8.90;;;;;;;12.86;94.73;101949.97;5049205;28;20145;-65
2022/06/13 02:49:21;;;;;;;12.38;7.45;;;;;;;12.71;95.04;101948.13;5049895;28;20039;-65
2022/06/13 02:52:27;;;;;;;18.65;8.38;;;;;;;12.76;94.87;101940.72;5050891;28;20048;-65
2022/06/13 02:55:00;;;;;;;17.05;8.35;;;;;;;12.84;94.94;101941.13;5033297;28;20044;-65
2022/06/13 02:57:37;;;;;;;21.92;8.38;;;;;;;12.77;96.28;101942.44;5031590;28;20491;-64
2022/06/13 03:00:08;;;;;;;15.55;6.90;;;;;;;12.67;96.84;101938.53;5049737;28;20552;-65
2022/06/13 03:02:43;;;;;;;20.50;7.33;;;;;;;12.82;95.96;101939.50;5036618;28;20086;-65
2022/06/13 03:05:39;;;;;;;16.95;8.00;;;;;;;12.87;95.54;101940.13;5049091;28;20570;-65
2022/06/13 03:08:15;;;;;;;26.27;8.27;;;;;;;12.78;95.45;101954.84;5038915;28;20716;-65
2022/06/13 03:11:16;;;;;;;11.60;7.57;;;;;;;12.73;96.20;101956.94;5050408;28;20655;-65
2022/06/13 03:14:09;;;;;;;19.35;7.63;;;;;;;12.79;95.56;101937.84;5017590;28;20056;-65
2022/06/13 03:16:46;;;;;;;;;;;;;;;12.89;94.98;101938.19;5042117;28;20125;-65
2022/06/13 03:19:20;;;;;;;19.40;6.40;;;;;;;12.89;95.04;101947.09;5049913;28;20042;-64
2022/06/13 03:22:01;;;;;;;17.75;7.82;;;;;;;12.79;95.77;101945.00;5052062;28;20119;-65
2022/06/13 03:24:46;;;;;;;17.70;8.25;;;;;;;12.81;96.00;101945.81;5050592;28;20068;-65
2022/06/13 03:27:29;;;;;;;13.05;6.07;;;;;;;12.84;95.58;101946.47;5050305;28;20095;-65
2022/06/13 03:29:58;;;;;;;;;;;;;;;12.85;95.72;101948.25;5024657;28;20048;-65
2022/06/13 03:32:29;;;;;;;4.30;2.50;;;;;;;12.83;95.48;101946.56;5050521;28;19920;-65
2022/06/13 03:35:00;;;;;;;2.85;2.38;;;;;;;12.80;95.98;101950.31;5050316;28;20041;-65
2022/06/13 03:37:36;;;;;;;1.70;1.60;;;;;;;12.87;95.25;101940.97;5029735;28;20028;-66
2022/06/13 03:40:06;;;;;;;1.83;1.63;;;;;;;12.84;95.21;101945.63;5029901;28;20480;-65
2022/06/13 03:42:43;;;;;;;2.47;2.08;;;;;;;12.79;95.36;101953.03;5032359;28;20152;-65
2022/06/13 03:45:21;;;;;;;1.10;1.00;;;;;;;12.88;95.11;101957.91;5029308;28;20048;-64
2022/06/13 03:47:53;;;;;;;0.70;0.70;;;;;;;12.79;95.37;101959.25;5029787;28;20111;-65
2022/06/13 03:50:28;;;;;;;0.60;0.60;;;;;;;12.90;95.06;101958.66;5029768;28;20045;-65
2022/06/13 03:53:19;;;;;;;1.02;0.80;;;;;;;12.82;95.71;101960.91;5040659;28;20463;-65
2022/06/13 03:55:52;;;;;;;0.80;0.80;;;;;;;12.79;96.58;101971.78;5018747;28;20471;-65
2022/06/13 03:58:27;;;;;;;5.18;3.40;;;;;;;12.74;96.95;101972.03;5044870;28;20036;-65
2022/06/13 04:01:01;;;;;;;7.15;4.45;;;;;;;12.80;96.41;101970.81;5028938;28;20147;-65
2022/06/13 04:03:28;;;;;;;2.42;1.95;;;;;;;12.81;96.31;101969.91;5033010;28;20037;-65
2022/06/13 04:06:03;;;;;;;3.85;2.80;;;;;;;12.84;96.69;101969.72;5030009;28;20286;-64
2022/06/13 04:08:32;;;;;;;5.47;3.13;;;;;;;12.97;95.92;101978.81;5029906;28;20048;-65
2022/06/13 04:11:21;;;;;;;0.10;0.10;;;;;;;13.01;96.21;101977.69;5035565;28;20119;-63
2022/06/13 04:13:56;;;;;;;0.10;0.10;;;;;;;13.17;95.10;101977.72;5037256;28;20383;-65
2022/06/13 04:16:48;;;;;;;0.10;0.10;;;;;;;13.19;95.05;101965.06;5031558;28;20109;-65
2022/06/13 04:19:20;;;;;;;0.10;0.10;;;;;;;13.23;95.84;101973.84;5033955;28;20101;-65
2022/06/13 04:22:26;;;;;;;0.10;0.10;;;;;;;13.13;95.66;101977.00;5033964;28;20353;-65
2022/06/13 04:25:04;;;;;;;0.10;0.10;;;;;;;13.19;96.10;101987.38;5036787;28;20144;-65
2022/06/13 04:27:48;;;;;;;18.00;8.82;;;;;;;13.27;95.81;101989.66;5022531;28;20050;-65
2022/06/13 04:30:18;;;;;;;21.45;8.25;;;;;;;13.31;95.72;101985.88;5031754;28;20149;-65
2022/06/13 04:33:17;;;;;;;13.13;7.45;;;;;;;13.39;95.47;101983.59;5032978;28;20040;-65
2022/06/13 04:35:45;;;;;;;15.82;8.95;;;;;;;13.37;95.56;101988.19;5033218;28;20045;-65
2022/06/13 04:38:13;;;;;;;17.73;8.85;;;;;;;13.41;95.65;101991.56;5031574;28;20041;-65
2022/06/13 04:40:45;;;;;;;17.63;7.82;;;;;;;13.52;95.17;101990.94;5039488;28;20764;-65
2022/06/13 04:43:14;;;;;;;13.57;7.85;;;;;;;13.36;96.45;101996.31;5046080;28;20043;-64
2022/06/13 04:46:08;;;;;;;16.08;8.00;;;;;;;13.41;96.62;101986.22;5033630;28;20777;-65
2022/06/13 04:48:36;;;;;;;16.95;8.32;;;;;;;13.52;95.90;101996.31;5013285;28;20045;-65
2022/06/13 04:51:08;;;;;;;14.77;8.30;;;;;;;13.63;95.75;101983.16;5044301;28;20451;-65
2022/06/13 04:53:47;;;;;;;23.33;9.00;;;;;;;13.57;96.15;101978.16;5048221;28;20144;-65
2022/06/13 04:56:13;;;;;;;18.20;8.52;;;;;;;13.69;96.01;101982.78;5026018;28;20126;-65
2022/06/13 04:58:40;;;;;;;19.30;8.82;;;;;;;13.78;95.53;101981.41;5034254;28;20036;-65
2022/06/13 05:01:26;;;;;;;20.67;9.60;;;;;;;13.93;95.33;101988.53;5015532;28;20538;-64
2022/06/13 05:03:53;;;;;;;22.80;8.68;;;;;;;13.95;95.50;101984.78;5016417;28;20071;-65
2022/06/13 05:06:29;;;;;;;15.13;8.02;;;;;;;14.11;94.78;101987.47;5018833;28;20067;-65
2022/06/13 05:09:10;;;;;;;17.42;8.00;;;;;;;14.23;94.43;101984.03;5048543;28;20155;-65
2022/06/13 05:11:40;;;;;;;20.55;8.88;;;;;;;14.43;92.58;101984.63;5049599;28;20045;-65
2022/06/13 05:14:13;;;;;;;19.98;8.85;;;;;;;14.60;91.91;101989.84;5024225;28;20563;-65
2022/06/13 05:17:04;;;;;;;25.23;9.27;;;;;;;14.85;89.66;101997.22;5047856;28;20079;-65
2022/06/13 05:19:43;;;;;;;26.20;10.68;;;;;;;14.97;90.16;101992.94;5032713;28;20408;-65
2022/06/13 05:22:20;;;;;;;26.17;9.50;;;;;;;15.03;89.12;102006.81;5035200;28;20052;-65
2022/06/13 05:24:57;;;;;;;24.10;8.90;;;;;;;15.22;87.65;102006.53;5031187;28;20033;-65
2022/06/13 05:27:23;;;;;;;26.92;8.77;;;;;;;15.55;86.31;102002.59;5036483;28;20044;-65
2022/06/13 05:29:48;;;;;;;21.17;9.27;;;;;;;15.76;85.97;102001.22;5051665;28;20047;-65
2022/06/13 05:32:16;;;;;;;22.20;8.45;;;;;;;15.93;85.59;101994.69;5047132;28;20048;-65
2022/06/13 05:34:44;;;;;;;25.25;9.10;;;;;;;16.73;82.33;101995.47;5045850;28;20044;-65
2022/06/13 05:37:13;;;;;;;22.80;9.10;;;;;;;16.41;82.62;101997.69;5047264;28;20055;-65
2022/06/13 05:39:38;;;;;;;16.48;9.38;;;;;;;18.11;77.90;101993.38;5033665;28;20439;-65
2022/06/13 05:42:04;;;;;;;17.30;7.80;;;;;;;19.32;72.04;101998.16;5036312;28;20032;-64
2022/06/13 05:44:29;;;;;;;23.83;9.10;;;;;;;18.64;72.82;102000.00;5044191;28;20805;-65
2022/06/13 05:46:55;;;;;;;23.33;9.45;;;;;;;17.99;75.33;102005.13;5032974;28;20853;-65
2022/06/13 05:49:20;;;;;;;22.80;9.77;;;;;;;17.62;77.87;102007.88;5035248;28;20332;-65
2022/06/13 05:51:46;;;;;;;24.95;9.65;;;;;;;17.54;76.92;102012.97;5030968;28;20029;-65
2022/06/13 05:54:13;;;;;;;21.33;8.93;;;;;;;18.38;74.48;102007.47;5029627;28;20917;-65
2022/06/13 05:56:39;;;;;;;32.15;9.27;;;;;;;19.56;70.08;102008.81;5042159;28;20055;-65
2022/06/13 05:59:04;;;;;;;21.95;9.15;;;;;;;19.07;70.91;102018.22;5034369;28;20043;-64
2022/06/13 06:01:30;;;;;;;27.30;7.95;;;;;;;19.26;69.34;102014.03;5049659;28;20032;-65
2022/06/13 06:03:55;;;;;;;22.45;9.35;;;;;;;19.45;71.08;102018.81;5050167;28;20025;-65
2022/06/13 06:06:24;;;;;;;16.20;7.75;;;;;;;20.06;65.70;102014.59;5032098;28;20040;-65
2022/06/13 06:08:50;;;;;;;19.20;8.18;;;;;;;20.03;67.88;102025.69;5032175;28;20041;-66
2022/06/13 06:11:16;;;;;;;18.67;7.18;;;;;;;20.62;64.21;102018.84;5049377;28;20451;-66
2022/06/13 06:13:42;;;;;;;19.52;6.85;;;;;;;20.34;63.72;102023.06;5050517;28;20040;-66
2022/06/13 06:16:13;;;;;;;11.32;5.20;;;;;;;18.98;65.77;102031.66;5051298;28;20056;-65
2022/06/13 06:18:38;;;;;;;17.27;4.70;;;;;;;19.42;64.42;102028.03;5051699;28;20037;-66
2022/06/13 06:21:04;;;;;;;11.63;4.75;;;;;;;19.40;63.50;102035.44;5048862;28;20032;-65
2022/06/13 06:23:29;;;;;;;16.35;5.13;;;;;;;19.86;60.52;102037.06;5040539;28;20768;-66
2022/06/13 06:25:55;;;;;;;15.68;4.78;;;;;;;19.54;62.52;102039.72;5029910;28;20075;-65
2022/06/13 06:28:24;;;;;;;16.05;4.05;;;;;;;18.55;64.75;102051.22;5036936;28;20041;-66
2022/06/13 06:30:53;;;;;;;10.82;3.50;;;;;;;19.44;61.07;102045.03;5030916;28;20918;-66
2022/06/13 06:33:18;;;;;;;9.95;3.50;;;;;;;20.25;59.62;102048.25;5029098;28;20143;-66
2022/06/13 06:35:44;;;;;;;9.02;3.47;;;;;;;20.24;60.08;102047.38;5045679;28;20044;-66
2022/06/13 06:38:10;;;;;;;7.97;3.15;;;;;;;20.38;56.25;102052.50;5030038;28;20057;-64
2022/06/13 06:40:36;;;;;;;9.13;3.50;;;;;;;20.59;57.32;102059.78;5031052;28;20033;-65
2022/06/13 06:43:02;;;;;;;9.02;3.15;;;;;;;20.26;58.70;102052.66;5029290;28;20041;-66
2022/06/13 06:45:28;;;;;;;10.02;2.97;;;;;;;19.46;59.01;102058.41;5029429;28;20061;-66
2022/06/13 06:47:55;;;;;;;13.63;3.67;;;;;;;18.98;61.12;102067.66;5029142;28;20036;-66
2022/06/13 06:50:23;;;;;;;15.07;4.22;;;;;;;19.83;60.69;102058.97;5028832;28;20547;-66
2022/06/13 06:52:48;;;;;;;16.48;3.58;;;;;;;20.83;56.44;102045.94;5040039;28;20037;-65
2022/06/13 07:00:49;;;;;;;11.45;4.07;;;;;;;19.54;58.09;102061.38;5049561;28;20154;-66
2022/06/13 07:03:16;;;;;;;10.48;3.83;;;;;;;20.38;56.18;102059.72;5049014;28;20537;-66
2022/06/13 07:05:41;;;;;;;9.45;3.38;;;;;;;20.28;58.99;102061.50;5050354;28;20146;-66
2022/06/13 07:08:07;;;;;;;10.63;3.70;;;;;;;20.59;56.72;102062.50;5049478;28;20779;-66
2022/06/13 07:10:33;;;;;;;8.65;3.00;;;;;;;21.06;55.10;102062.91;5050104;28;20375;-65
2022/06/13 07:12:58;;;;;;;10.10;3.45;;;;;;;20.18;55.21;102064.13;5032324;28;20059;-65
2022/06/13 07:15:24;;;;;;;7.70;2.42;;;;;;;20.09;55.29;102064.94;5047969;28;20032;-66
2022/06/13 07:17:49;;;;;;;7.53;3.38;;;;;;;19.41;56.89;102067.75;5050429;28;20686;-66
2022/06/13 07:20:15;;;;;;;8.93;3.00;;;;;;;19.27;58.21;102072.56;5049299;28;20036;-65
2022/06/13 07:22:52;;;;;;;11.70;3.20;;;;;;;18.91;59.08;102070.94;5049388;28;20147;-65
2022/06/13 07:25:23;;;;;;;5.43;2.28;;;;;;;19.35;57.69;102081.78;5048760;28;20122;-65
2022/06/13 07:27:49;;;;;;;6.40;2.45;;;;;;;19.66;56.75;102079.31;5049350;28;20112;-65
2022/06/13 07:30:17;;;;;;;9.13;3.13;;;;;;;20.02;56.07;102075.41;5049503;28;20041;-66
2022/06/13 07:32:43;;;;;;;9.48;3.50;;;;;;;20.44;59.48;102070.06;5032145;28;20383;-65
2022/06/13 07:35:10;;;;;;;8.70;3.58;;;;;;;21.25;57.61;102065.69;5049335;28;20052;-66
2022/06/13 07:40:20;;;;;;;10.38;3.72;;;;;;;20.55;55.79;102061.03;5049106;28;20139;-66
2022/06/13 07:42:49;;;;;;;11.15;3.50;;;;;;;21.39;53.67;102059.94;5049611;28;20118;-66
2022/06/13 07:45:19;;;;;;;10.30;3.92;;;;;;;21.38;54.80;102062.75;5051493;28;20040;-66
2022/06/13 07:47:45;;;;;;;12.85;4.45;;;;;;;21.43;52.85;102063.22;5053964;28;20041;-66
2022/06/13 07:50:14;;;;;;;9.82;3.13;;;;;;;21.46;52.20;102062.94;5052540;28;20829;-66
2022/06/13 07:52:40;;;;;;;5.75;3.47;;;;;;;20.79;54.69;102074.31;5053328;28;20451;-66
2022/06/13 07:55:06;;;;;;;9.90;2.70;;;;;;;20.38;55.56;102078.69;5051983;28;20052;-66
2022/06/13 07:57:32;;;;;;;6.00;2.58;;;;;;;21.49;55.71;102072.66;5053438;28;20418;-67
2022/06/13 07:59:58;;;;;;;4.32;2.17;;;;;;;21.69;51.23;102071.72;5052963;28;20077;-66
2022/06/13 08:02:28;;;;;;;5.13;2.28;;;;;;;20.43;52.11;102076.44;5033536;28;20040;-66
2022/06/13 08:04:53;;;;;;;3.95;2.75;;;;;;;20.59;54.02;102089.59;5052638;28;20487;-66
2022/06/13 08:07:19;;;;;;;9.18;2.63;;;;;;;21.77;50.16;102085.44;5050482;28;20036;-66
2022/06/13 08:09:44;;;;;;;6.28;2.00;;;;;;;22.16;49.23;102085.53;5053786;28;20043;-66
2022/06/13 08:12:14;;;;;;;8.45;2.65;;;;;;;21.30;48.66;102087.00;5052648;28;20040;-66
2022/06/13 08:14:45;;;;;;;9.50;3.00;;;;;;;22.22;48.54;102082.25;5052591;28;20033;-65
2022/06/13 08:17:11;;;;;;;5.90;3.38;;;;;;;21.55;49.38;102091.13;5052386;28;20659;-63
2022/06/13 08:19:37;;;;;;;6.53;2.35;;;;;;;21.88;51.63;102093.47;5051348;28;20140;-66
2022/06/13 08:22:02;;;;;;;8.25;2.80;;;;;;;22.33;49.41;102097.53;5053487;28;20051;-66
2022/06/13 08:24:28;;;;;;;8.60;3.22;;;;;;;21.12;47.93;102098.47;5053007;28;20040;-66
2022/06/13 08:26:53;;;;;;;4.88;2.50;;;;;;;20.53;50.03;102109.09;5050676;28;20036;-66
2022/06/13 08:29:19;;;;;;;9.40;2.08;;;;;;;21.26;52.07;102104.53;5051132;28;20884;-66
2022/06/13 08:31:44;;;;;;;6.43;1.88;;;;;;;21.78;47.97;102102.59;5051945;28;20043;-66
2022/06/13 08:34:09;;;;;;;5.47;1.73;;;;;;;21.77;46.59;102103.59;5050364;28;20075;-65
2022/06/13 08:36:35;;;;;;;5.47;1.63;;;;;;;22.35;46.19;102109.16;5051074;28;20037;-66
2022/06/13 08:39:00;;;;;;;2.78;1.48;;;;;;;21.66;46.57;102107.28;5051490;28;20044;-66
2022/06/13 08:42:03;;;;;;;2.97;1.13;;;;;;;21.42;47.28;102103.06;5051309;28;20037;-66
2022/06/13 08:44:43;;;;;;;;;;;;;;;20.89;47.36;102107.78;5052661;28;20048;-66
2022/06/13 08:47:23;;;;;;;10.93;2.53;;;;;;;20.35;50.28;102125.03;5052821;28;20082;-66
2022/06/13 08:50:15;;;;;;;5.70;1.70;;;;;;;19.25;52.28;102129.50;5052687;28;20048;-66
2022/06/13 08:53:04;;;;;;;6.63;1.50;;;;;;;18.82;55.62;102129.28;5052226;28;20106;-66
2022/06/13 08:55:43;;;;;;;6.70;1.48;;;;;;;20.54;51.97;102124.38;5051266;28;20028;-66
2022/06/13 08:58:24;;;;;;;3.28;1.58;;;;;;;21.35;48.70;102125.47;5051788;28;20051;-65
2022/06/13 09:00:55;;;;;;;2.70;1.38;;;;;;;21.45;50.05;102121.81;5052178;28;20055;-65
2022/06/13 09:03:35;;;;;;;5.50;1.40;;;;;;;20.04;52.01;102133.03;5051264;28;20036;-66
2022/06/13 09:06:11;;;;;;;7.30;1.80;;;;;;;19.28;53.95;102136.53;5052030;28;20591;-65
2022/06/13 09:08:58;;;;;;;6.07;1.50;;;;;;;19.13;57.15;102141.28;5051898;28;20110;-66
2022/06/13 09:11:40;;;;;;;3.53;2.00;;;;;;;18.71;55.97;102150.88;5040073;28;20044;-67
2022/06/13 09:14:29;;;;;;;6.20;1.35;;;;;;;17.91;55.34;102154.13;5050143;28;20140;-66
2022/06/13 09:17:22;;;;;;;8.05;1.58;;;;;;;17.82;56.26;102160.19;5051819;28;20087;-65
2022/06/13 09:20:10;;;;;;;2.92;1.42;;;;;;;17.81;57.22;102162.03;5051976;28;20052;-65
2022/06/13 09:22:57;;;;;;;8.32;2.08;;;;;;;17.83;57.46;102160.13;5051823;28;20071;-65
2022/06/13 09:25:38;;;;;;;5.90;1.45;;;;;;;19.03;54.64;102159.22;5050430;28;20161;-65
2022/06/13 09:28:10;;;;;;;4.55;1.98;;;;;;;19.29;51.72;102162.56;5050175;28;20114;-65
2022/06/13 09:30:43;;;;;;;3.40;1.45;;;;;;;19.61;50.79;102158.19;5051082;28;20040;-65
2022/06/13 09:33:19;;;;;;;4.15;1.00;;;;;;;20.70;48.15;102157.31;5049655;28;20087;-66
2022/06/13 09:35:52;;;;;;;1.55;0.70;;;;;;;21.35;48.47;102150.75;5050070;28;20040;-66
2022/06/13 09:38:26;;;;;;;2.25;1.08;;;;;;;21.16;46.23;102151.47;5049430;28;20146;-65
2022/06/13 09:41:00;;;;;;;2.22;1.33;;;;;;;21.80;44.76;102147.66;5050598;28;20156;-65
2022/06/13 09:43:34;;;;;;;2.75;0.90;;;;;;;22.06;44.01;102155.28;5036683;28;20126;-65
2022/06/13 09:46:15;;;;;;;1.33;0.73;;;;;;;20.49;47.31;102162.69;5050488;28;20032;-66
2022/06/13 09:48:47;;;;;;;2.97;1.10;;;;;;;20.18;48.16;102167.94;5034319;28;20087;-66
2022/06/13 09:51:35;;;;;;;3.80;1.00;;;;;;;19.71;51.51;102171.81;5044264;28;20109;-66
2022/06/13 09:54:09;;;;;;;4.93;1.10;;;;;;;20.00;50.67;102179.44;5050062;28;20036;-65
2022/06/13 09:57:04;;;;;;;3.10;0.93;;;;;;;20.42;50.02;102181.28;5049960;28;20090;-65
2022/06/13 09:59:45;;;;;;;3.72;1.00;;;;;;;21.33;46.96;102170.88;5039961;28;20036;-65
2022/06/13 10:02:23;;;;;;;4.95;1.17;;;;;;;20.96;46.98;102171.34;5049685;28;20039;-64
2022/06/13 10:05:15;;;;;;;4.93;1.85;;;;;;;20.76;45.81;102175.75;5047861;28;20129;-65
2022/06/13 10:08:35;;;;;;;5.35;1.08;;;;;;;20.33;46.93;102168.53;5031989;28;20036;-65
2022/06/13 10:11:05;;;;;;;2.95;1.20;;;;;;;19.83;50.13;102183.50;4967472;28;20034;-66
2022/06/13 10:14:03;;;;;;;4.50;1.10;;;;;;;19.78;50.89;102183.00;4967867;28;20078;-65
2022/06/13 10:16:55;;;;;;;2.65;1.10;;;;;;;20.10;51.58;102188.53;4967553;28;20054;-64
2022/06/13 10:19:20;;;;;;;6.07;1.23;;;;;;;20.23;50.26;102189.25;4963513;28;20050;-65
2022/06/13 10:21:48;;;;;;;2.20;1.15;;;;;;;20.65;47.02;102186.66;4957916;28;20043;-66
2022/06/13 10:24:27;;;;;;;6.03;0.90;;;;;;;20.84;45.47;102184.09;4962230;28;20148;-65
2022/06/13 10:27:27;;;;;;;4.13;1.23;;;;;;;20.24;45.18;102195.53;4966893;28;20056;-65
2022/06/13 10:30:11;;;;;;;2.78;0.85;;;;;;;20.21;45.25;102190.34;4968403;28;20533;-65
2022/06/13 10:32:44;;;;;;;3.78;1.67;;;;;;;20.42;45.60;102194.81;4953288;28;20344;-65
2022/06/13 10:35:30;;;;;;;6.50;1.30;;;;;;;19.89;47.40;102194.72;4966743;28;20521;-65
2022/06/13 10:38:22;;;;;;;4.25;1.30;;;;;;;19.42;48.61;102204.75;4966173;28;20050;-65
2022/06/13 10:40:47;;;;;;;12.00;1.92;;;;;;;19.55;51.15;102198.38;4967618;28;20042;-65
2022/06/13 10:43:13;;;;;;;4.03;1.10;;;;;;;20.64;50.29;102207.50;4966274;28;20144;-65
2022/06/13 10:45:41;;;;;;;5.97;1.27;;;;;;;20.29;47.52;102214.97;5037113;28;20858;-65
2022/06/13 10:48:18;;;;;;;3.42;1.17;;;;;;;19.40;49.17;102209.44;5046426;28;20054;-65
2022/06/13 10:50:53;;;;;;;5.57;1.02;;;;;;;20.20;49.58;102199.47;5049879;28;20036;-65
2022/06/13 10:53:41;;;;;;;3.03;1.10;;;;;;;19.99;48.04;102197.53;5048162;28;20062;-65
2022/06/13 10:56:32;;;;;;;3.75;0.95;;;;;;;20.38;48.94;102196.09;5047686;28;20054;-65
2022/06/13 10:58:58;;;;;;;1.90;1.20;;;;;;;21.13;44.73;102186.13;5049192;28;20388;-65
2022/06/13 11:01:28;;;;;;;2.67;1.30;;;;;;;20.46;46.32;102205.41;5048314;28;20451;-65
2022/06/13 11:04:08;;;;;;;5.78;1.02;;;;;;;20.52;48.10;102205.78;5049299;28;20078;-66
2022/06/13 11:06:38;;;;;;;4.78;1.95;;;;;;;20.59;46.13;102196.16;5049359;28;20135;-65
2022/06/13 11:09:18;;;;;;;1.95;0.90;;;;;;;21.17;44.83;102204.72;5047954;28;20044;-65
2022/06/13 11:11:44;;;;;;;3.90;1.58;;;;;;;21.46;44.89;102193.22;5030754;28;20037;-66
2022/06/13 11:14:26;;;;;;;1.40;0.93;;;;;;;20.68;44.84;102205.34;5046486;28;20087;-65
2022/06/13 11:22:40;;;;;;;10.43;1.42;;;;;;;19.47;46.98;102209.78;5052860;28;21152;-64
2022/06/13 11:25:14;;;;;;;4.28;1.42;;;;;;;20.96;45.62;102214.72;5052390;28;20032;-64
2022/06/13 11:27:40;;;;;;;4.28;1.00;;;;;;;21.90;44.58;102199.28;5053620;28;20059;-65
2022/06/13 11:30:27;;;;;;;3.97;1.67;;;;;;;21.63;44.07;102205.31;5035565;28;20048;-65
2022/06/13 11:33:29;;;;;;;2.85;1.10;;;;;;;20.35;43.69;102211.75;5053249;28;20119;-64
2022/06/13 11:36:21;;;;;;;7.10;1.10;;;;;;;21.46;40.97;102202.22;5053700;28;20181;-64
2022/06/13 11:39:01;;;;;;;3.13;1.17;;;;;;;21.72;42.30;102201.78;5046810;28;20486;-65
2022/06/13 11:41:42;;;;;;;3.22;0.95;;;;;;;20.67;45.20;102214.47;5052989;28;20040;-65
2022/06/13 11:44:11;;;;;;;2.63;1.13;;;;;;;19.88;46.78;102217.38;5052788;28;20499;-65
2022/06/13 11:46:58;;;;;;;4.32;1.30;;;;;;;19.87;44.56;102223.72;5052643;28;20040;-64
2022/06/13 11:49:34;;;;;;;4.60;1.52;;;;;;;19.66;45.27;102218.19;5051879;28;20590;-65
2022/06/13 11:55:28;;;;;;;13.15;1.67;;;;;;;20.55;45.41;102216.38;4990066;28;20839;-65
2022/06/13 11:57:57;;;;;;;8.27;1.35;;;;;;;21.38;43.31;102204.75;4990752;28;20627;-64
2022/06/13 12:00:30;;;;;;;4.90;1.48;;;;;;;20.75;42.68;102198.44;4973080;28;20131;-65
2022/06/13 12:03:14;;;;;;;1.63;0.70;;;;;;;21.24;43.69;102202.38;4990528;28;20042;-65
2022/06/13 12:05:40;;;;;;;4.50;1.10;;;;;;;21.59;43.09;102196.59;4990817;28;20038;-65
2022/06/13 12:08:14;;;;;;;4.18;1.20;;;;;;;21.73;44.17;102201.63;4970801;28;20224;-65
2022/06/13 12:10:42;;;;;;;1.98;1.30;;;;;;;19.98;46.76;102208.47;4987849;28;20060;-65
2022/06/13 12:13:15;;;;;;;5.38;1.13;;;;;;;19.29;48.37;102211.25;4989607;28;20858;-64
2022/06/13 12:15:50;;;;;;;4.50;1.65;;;;;;;19.85;46.28;102214.03;4989357;28;20144;-65